createdAt,value
2018-06-25T00:01:46.272Z,101959.06
2018-06-25T00:04:14.537Z,101961.36
2018-06-25T00:06:42.842Z,101954.91
2018-06-25T00:09:11.565Z,101964.61
2018-06-25T00:11:40.069Z,101964.38
2018-06-25T00:14:08.317Z,101959.47
2018-06-25T00:16:36.677Z,101959.55
2018-06-25T00:19:05.013Z,101958.22
2018-06-25T00:21:33.284Z,101949.38
2018-06-25T00:24:01.566Z,101949.59
2018-06-25T00:26:29.836Z,101947.55
2018-06-25T00:28:58.113Z,101942.47
2018-06-25T00:31:26.365Z,101947.47
2018-06-25T00:33:54.649Z,101948.03
2018-06-25T00:36:23.125Z,101950.62
2018-06-25T00:38:51.401Z,101951.77
2018-06-25T00:41:19.724Z,101959.30
2018-06-25T00:43:47.987Z,101952.13
2018-06-25T00:46:16.233Z,101948.09
2018-06-25T00:48:44.577Z,101944.95
2018-06-25T00:51:12.870Z,101951.26
2018-06-25T00:53:41.241Z,101947.08
2018-06-25T00:56:09.590Z,101947.05
2018-06-25T00:58:49.146Z,101950.33
2018-06-25T01:01:17.423Z,101947.22
2018-06-25T01:03:45.733Z,101936.47
2018-06-25T01:06:14.110Z,101940.91
2018-06-25T01:08:42.389Z,101943.81
2018-06-25T01:11:10.682Z,101949.16
2018-06-25T01:13:38.936Z,101951.52
2018-06-25T01:16:07.253Z,101947.80
2018-06-25T01:18:35.504Z,101948.16
2018-06-25T01:21:03.821Z,101956.84
2018-06-25T01:23:32.069Z,101958.20
2018-06-25T01:26:00.369Z,101949.91
2018-06-25T01:28:28.644Z,101944.77
2018-06-25T01:30:56.929Z,101949.14
2018-06-25T01:33:25.178Z,101948.98
2018-06-25T01:35:53.508Z,101946.36
2018-06-25T01:38:21.760Z,101942.56
2018-06-25T01:40:50.034Z,101938.14
2018-06-25T01:43:18.330Z,101937.33
2018-06-25T01:45:46.613Z,101941.96
2018-06-25T01:48:14.864Z,101937.18
2018-06-25T01:50:43.160Z,101938.34
2018-06-25T01:53:11.572Z,101946.89
2018-06-25T01:55:39.861Z,101947.96
2018-06-25T01:58:08.121Z,101946.77
2018-06-25T02:00:36.453Z,101948.16
2018-06-25T02:03:04.729Z,101947.24
2018-06-25T02:05:32.996Z,101946.33
2018-06-25T02:08:01.297Z,101947.70
2018-06-25T02:10:29.556Z,101950.55
2018-06-25T02:12:58.110Z,101939.69
2018-06-25T02:15:26.369Z,101945.08
2018-06-25T02:17:54.774Z,101943.02
2018-06-25T02:20:23.041Z,101941.34
2018-06-25T02:22:51.361Z,101930.12
2018-06-25T02:25:19.625Z,101932.91
2018-06-25T02:27:47.921Z,101933.64
2018-06-25T02:30:16.193Z,101937.02
2018-06-25T02:32:44.491Z,101936.19
2018-06-25T02:35:12.788Z,101944.19
2018-06-25T02:37:41.113Z,101941.32
2018-06-25T02:40:09.419Z,101934.13
2018-06-25T02:42:37.719Z,101933.79
2018-06-25T02:45:06.197Z,101925.73
2018-06-25T02:47:34.508Z,101930.12
2018-06-25T02:50:02.836Z,101933.81
2018-06-25T02:52:31.144Z,101936.31
2018-06-25T02:54:59.548Z,101930.97
2018-06-25T02:57:27.809Z,101939.24
2018-06-25T02:59:56.107Z,101951.94
2018-06-25T03:02:24.371Z,101955.73
2018-06-25T03:04:52.671Z,101955.63
2018-06-25T03:07:21.129Z,101961.00
2018-06-25T03:09:49.447Z,101961.42
2018-06-25T03:12:17.725Z,101954.66
2018-06-25T03:14:46.098Z,101959.59
2018-06-25T03:17:14.465Z,101951.44
2018-06-25T03:19:42.770Z,101951.08
2018-06-25T03:22:11.070Z,101955.95
2018-06-25T03:24:39.370Z,101949.85
2018-06-25T03:27:07.653Z,101954.91
2018-06-25T03:29:35.975Z,101949.61
2018-06-25T03:32:04.270Z,101943.21
2018-06-25T03:34:32.589Z,101947.05
2018-06-25T03:37:00.855Z,101942.09
2018-06-25T03:39:29.169Z,101940.20
2018-06-25T03:41:57.445Z,101939.95
2018-06-25T03:44:25.846Z,101933.05
2018-06-25T03:46:54.134Z,101937.38
2018-06-25T03:49:22.468Z,101940.22
2018-06-25T03:51:50.736Z,101944.41
2018-06-25T03:54:19.065Z,101954.22
2018-06-25T03:56:47.341Z,101954.22
2018-06-25T03:59:15.667Z,101955.53
2018-06-25T04:01:43.966Z,101958.88
2018-06-25T04:04:12.240Z,101963.93
2018-06-25T04:06:40.533Z,101968.97
2018-06-25T04:09:10.553Z,101969.09
2018-06-25T04:11:39.149Z,101973.13
2018-06-25T04:14:07.502Z,101967.53
2018-06-25T04:16:35.809Z,101974.59
2018-06-25T04:19:06.041Z,101976.49
2018-06-25T04:21:37.523Z,101972.22
2018-06-25T04:24:06.123Z,101974.48
2018-06-25T04:26:34.641Z,101979.50
2018-06-25T04:29:03.305Z,101973.52
2018-06-25T04:31:31.609Z,101974.25
2018-06-25T04:34:00.058Z,101974.36
2018-06-25T04:36:28.565Z,101970.64
2018-06-25T04:38:56.839Z,101979.02
2018-06-25T04:41:25.185Z,101981.88
2018-06-25T04:43:53.539Z,101985.61
2018-06-25T04:46:21.789Z,101978.54
2018-06-25T04:48:50.101Z,101978.03
2018-06-25T04:51:18.471Z,101975.30
2018-06-25T04:53:46.896Z,101976.11
2018-06-25T04:56:15.166Z,101975.98
2018-06-25T04:58:43.449Z,101979.00
2018-06-25T05:01:11.767Z,101972.53
2018-06-25T05:03:40.045Z,101972.91
2018-06-25T05:06:08.296Z,101969.64
2018-06-25T05:08:36.597Z,101967.62
2018-06-25T05:11:04.861Z,101976.23
2018-06-25T05:13:33.186Z,101971.83
2018-06-25T05:16:01.470Z,101977.62
2018-06-25T05:18:29.828Z,101983.45
2018-06-25T05:20:58.069Z,101995.52
2018-06-25T05:23:26.352Z,101993.38
2018-06-25T05:25:54.782Z,101994.62
2018-06-25T05:28:23.137Z,101992.53
2018-06-25T05:30:51.415Z,101986.70
2018-06-25T05:33:19.812Z,102000.59
2018-06-25T05:35:48.097Z,102002.87
2018-06-25T05:38:16.433Z,101991.60
2018-06-25T05:40:44.829Z,102000.16
2018-06-25T05:43:13.084Z,101996.50
2018-06-25T05:45:41.385Z,101992.53
2018-06-25T05:48:09.738Z,102002.52
2018-06-25T05:50:38.041Z,101998.98
2018-06-25T05:53:06.290Z,102005.38
2018-06-25T05:55:34.569Z,101998.66
2018-06-25T05:58:02.825Z,101996.30
2018-06-25T06:00:31.121Z,101997.16
2018-06-25T06:02:59.497Z,101997.44
2018-06-25T06:05:27.769Z,101997.57
2018-06-25T06:07:56.030Z,101995.95
2018-06-25T06:10:24.309Z,102010.69
2018-06-25T06:12:52.574Z,102003.02
2018-06-25T06:15:20.866Z,102000.70
2018-06-25T06:17:49.139Z,101999.65
2018-06-25T06:20:17.421Z,101999.21
2018-06-25T06:22:45.697Z,102001.14
2018-06-25T06:25:14.019Z,102007.25
2018-06-25T06:27:42.913Z,102009.46
2018-06-25T06:30:11.223Z,102009.89
2018-06-25T06:32:39.470Z,102014.47
2018-06-25T06:35:07.760Z,102012.89
2018-06-25T06:37:36.117Z,102021.75
2018-06-25T06:40:04.476Z,102020.08
2018-06-25T06:42:32.861Z,102020.10
2018-06-25T06:45:01.125Z,102025.98
2018-06-25T06:47:29.433Z,102031.61
2018-06-25T06:49:57.716Z,102024.50
2018-06-25T06:52:26.003Z,102028.22
2018-06-25T06:54:54.273Z,102026.49
2018-06-25T06:57:22.555Z,102028.89
2018-06-25T06:59:50.805Z,102031.46
2018-06-25T07:02:19.133Z,102029.78
2018-06-25T07:04:47.475Z,102032.78
2018-06-25T07:07:15.750Z,102033.47
2018-06-25T07:09:44.025Z,102035.25
2018-06-25T07:12:12.341Z,102036.33
2018-06-25T07:14:40.585Z,102030.45
2018-06-25T07:17:08.833Z,102032.97
2018-06-25T07:19:37.109Z,102044.38
2018-06-25T07:22:05.369Z,102030.07
2018-06-25T07:24:33.653Z,102031.39
2018-06-25T07:27:02.007Z,102039.94
2018-06-25T07:29:30.293Z,102036.80
2018-06-25T07:31:58.741Z,102033.50
2018-06-25T07:35:30.221Z,102032.20
2018-06-25T07:37:58.504Z,102033.00
2018-06-25T07:40:26.783Z,102036.91
2018-06-25T07:42:55.066Z,102034.02
2018-06-25T07:45:23.421Z,102045.09
2018-06-25T07:47:51.702Z,102037.83
2018-06-25T07:50:20.041Z,102038.36
2018-06-25T07:52:48.567Z,102043.22
2018-06-25T07:55:16.858Z,102041.66
2018-06-25T07:57:45.125Z,102041.79
2018-06-25T08:00:13.495Z,102033.49
2018-06-25T08:02:41.750Z,102038.61
2018-06-25T08:05:10.441Z,102033.87
2018-06-25T08:07:38.748Z,102035.43
2018-06-25T08:10:07.183Z,102044.70
2018-06-25T08:12:35.466Z,102040.95
2018-06-25T08:15:03.867Z,102039.55
2018-06-25T08:17:32.129Z,102027.54
2018-06-25T08:20:00.453Z,102040.41
2018-06-25T08:22:28.730Z,102046.87
2018-06-25T08:24:57.022Z,102043.95
2018-06-25T08:27:25.396Z,102047.61
2018-06-25T08:29:53.746Z,102056.06
2018-06-25T08:32:22.226Z,102039.40
2018-06-25T08:34:50.486Z,102061.77
2018-06-25T08:37:18.788Z,102044.76
2018-06-25T08:39:47.041Z,102049.07
2018-06-25T08:42:15.379Z,102055.46
2018-06-25T08:44:43.609Z,102068.23
2018-06-25T08:47:11.897Z,102053.84
2018-06-25T08:49:40.190Z,102071.39
2018-06-25T08:52:08.499Z,102078.50
2018-06-25T08:54:37.045Z,102083.16
2018-06-25T08:57:05.380Z,102080.31
2018-06-25T08:59:33.657Z,102079.73
2018-06-25T09:02:01.944Z,102074.02
2018-06-25T09:04:30.395Z,102084.74
2018-06-25T09:06:58.818Z,102095.17
2018-06-25T09:09:27.662Z,102088.24
2018-06-25T09:11:56.009Z,102077.66
2018-06-25T09:14:24.277Z,102092.43
2018-06-25T09:16:52.585Z,102089.03
2018-06-25T09:19:20.857Z,102095.33
2018-06-25T09:21:49.185Z,102079.40
2018-06-25T09:24:17.464Z,102093.57
2018-06-25T09:26:45.745Z,102090.30
2018-06-25T09:29:14.218Z,102089.70
2018-06-25T09:31:42.493Z,102095.08
2018-06-25T09:34:16.097Z,102094.84
2018-06-25T09:36:44.554Z,102096.97
2018-06-25T09:39:13.308Z,102096.76
2018-06-25T09:41:41.701Z,102093.29
2018-06-25T09:44:10.973Z,102095.28
2018-06-25T09:46:39.429Z,102097.65
2018-06-25T09:49:09.053Z,102102.05
2018-06-25T09:51:37.313Z,102094.20
2018-06-25T09:54:05.675Z,102090.03
2018-06-25T09:56:33.951Z,102093.55
2018-06-25T09:59:02.258Z,102093.27
2018-06-25T10:01:30.554Z,102093.00
2018-06-25T10:03:58.863Z,102097.31
2018-06-25T10:06:27.159Z,102094.20
2018-06-25T10:08:55.441Z,102098.00
2018-06-25T10:11:23.709Z,102098.87
2018-06-25T10:13:51.997Z,102103.73
2018-06-25T10:16:20.289Z,102096.94
2018-06-25T10:18:48.590Z,102085.52
2018-06-25T10:21:16.883Z,102084.89
2018-06-25T10:23:45.142Z,102097.59
2018-06-25T10:26:13.419Z,102093.02
2018-06-25T10:28:41.731Z,102092.80
2018-06-25T10:31:10.373Z,102102.86
2018-06-25T10:33:38.640Z,102104.80
2018-06-25T10:36:06.979Z,102097.92
2018-06-25T10:38:35.346Z,102090.66
2018-06-25T10:41:03.657Z,102100.38
2018-06-25T10:43:31.927Z,102092.34
2018-06-25T10:46:00.261Z,102101.33
2018-06-25T10:48:28.545Z,102100.42
2018-06-25T10:50:56.873Z,102094.34
2018-06-25T10:53:25.134Z,102091.30
2018-06-25T10:55:53.492Z,102086.47
2018-06-25T10:58:21.745Z,102090.59
2018-06-25T11:00:50.042Z,102084.83
2018-06-25T11:03:18.289Z,102075.75
2018-06-25T11:05:46.580Z,102071.84
2018-06-25T11:08:14.836Z,102078.67
2018-06-25T11:10:43.142Z,102082.66
2018-06-25T11:13:11.410Z,102073.64
2018-06-25T11:15:39.713Z,102091.77
2018-06-25T11:18:08.012Z,102092.72
2018-06-25T11:20:36.349Z,102084.82
2018-06-25T11:23:04.610Z,102090.27
2018-06-25T11:25:32.909Z,102085.43
2018-06-25T11:28:01.190Z,102088.28
2018-06-25T11:30:29.493Z,102091.64
2018-06-25T11:32:57.788Z,102082.82
2018-06-25T11:35:32.529Z,102076.06
2018-06-25T11:38:00.828Z,102081.77
2018-06-25T11:40:29.106Z,102075.80
2018-06-25T11:42:57.411Z,102073.13
2018-06-25T11:45:25.678Z,102074.05
2018-06-25T11:47:53.972Z,102070.80
2018-06-25T11:50:22.304Z,102070.80
2018-06-25T11:52:50.605Z,102069.82
2018-06-25T11:55:18.865Z,102040.89
2018-06-25T11:57:47.140Z,102085.14
2018-06-25T12:00:15.441Z,102089.52
2018-06-25T12:02:43.906Z,102085.41
2018-06-25T12:05:12.025Z,102083.30
2018-06-25T12:07:40.309Z,102085.70
2018-06-25T12:10:08.585Z,102080.50
2018-06-25T12:12:37.057Z,102100.87
2018-06-25T12:15:05.478Z,102088.02
2018-06-25T12:17:33.771Z,102086.27
2018-06-25T12:20:02.141Z,102083.07
2018-06-25T12:22:30.377Z,102075.98
2018-06-25T12:24:58.657Z,102104.20
2018-06-25T12:27:26.924Z,102082.50
2018-06-25T12:29:55.211Z,102080.41
2018-06-25T12:32:23.480Z,102097.20
2018-06-25T12:34:51.761Z,102087.56
2018-06-25T12:37:20.023Z,102096.08
2018-06-25T12:39:48.317Z,102090.63
2018-06-25T12:42:16.625Z,102087.98
2018-06-25T12:44:44.935Z,102096.20
2018-06-25T12:47:13.186Z,102107.46
2018-06-25T12:49:41.534Z,102110.11
2018-06-25T12:52:09.790Z,102106.39
2018-06-25T12:54:38.074Z,102108.05
2018-06-25T12:57:06.442Z,102129.20
2018-06-25T12:59:34.734Z,102111.80
2018-06-25T13:02:03.041Z,102111.81
2018-06-25T13:04:31.324Z,102119.03
2018-06-25T13:06:59.954Z,102134.49
2018-06-25T13:09:28.224Z,102131.42
2018-06-25T13:11:56.557Z,102140.15
2018-06-25T13:14:24.830Z,102140.30
2018-06-25T13:16:53.532Z,102147.33
2018-06-25T13:19:21.825Z,102149.74
2018-06-25T13:21:50.129Z,102153.95
2018-06-25T13:24:18.422Z,102169.72
2018-06-25T13:26:46.749Z,102173.81
2018-06-25T13:29:15.015Z,102165.61
2018-06-25T13:31:43.312Z,102167.61
2018-06-25T13:34:11.577Z,102171.05
2018-06-25T13:36:39.866Z,102162.05
2018-06-25T13:39:08.961Z,102156.22
2018-06-25T13:41:37.273Z,102166.84
2018-06-25T13:44:05.808Z,102162.75
2018-06-25T13:46:34.375Z,102168.63
2018-06-25T13:49:02.765Z,102172.27
2018-06-25T13:51:31.138Z,102179.75
2018-06-25T13:53:59.513Z,102167.07
2018-06-25T13:56:27.930Z,102165.41
2018-06-25T13:58:56.209Z,102170.12
2018-06-25T14:01:24.498Z,102172.02
2018-06-25T14:03:52.785Z,102172.16
2018-06-25T14:06:21.078Z,102183.22
2018-06-25T14:08:49.349Z,102179.16
2018-06-25T14:11:17.657Z,102189.08
2018-06-25T14:13:45.965Z,102179.45
2018-06-25T14:16:14.265Z,102187.98
2018-06-25T14:18:42.673Z,102197.77
2018-06-25T14:21:10.948Z,102193.82
2018-06-25T14:23:43.433Z,102188.75
2018-06-25T14:26:11.929Z,102188.61
2018-06-25T14:28:40.263Z,102195.19
2018-06-25T14:31:13.992Z,102191.54
2018-06-25T14:33:43.612Z,102196.69
2018-06-25T14:36:11.926Z,102192.19
2018-06-25T14:38:40.224Z,102199.71
2018-06-25T14:41:08.510Z,102202.80
2018-06-25T14:43:36.809Z,102209.39
2018-06-25T14:46:05.601Z,102205.41
2018-06-25T14:48:33.965Z,102209.33
2018-06-25T14:51:02.904Z,102218.34
2018-06-25T14:53:31.220Z,102205.56
2018-06-25T14:55:59.594Z,102210.83
2018-06-25T14:58:27.877Z,102217.45
2018-06-25T15:00:56.229Z,102201.99
2018-06-25T15:03:24.489Z,102207.00
2018-06-25T15:05:52.929Z,102209.45
2018-06-25T15:08:21.205Z,102206.77
2018-06-25T15:10:49.585Z,102205.48
2018-06-25T15:13:17.906Z,102212.63
2018-06-25T15:15:46.161Z,102205.30
2018-06-25T15:18:14.613Z,102199.91
2018-06-25T15:20:42.909Z,102196.30
2018-06-25T15:23:11.237Z,102191.78
2018-06-25T15:25:39.593Z,102201.98
2018-06-25T15:28:07.869Z,102204.38
2018-06-25T15:30:36.146Z,102198.27
2018-06-25T15:33:04.470Z,102204.89
2018-06-25T15:35:32.760Z,102207.94
2018-06-25T15:38:01.043Z,102201.61
2018-06-25T15:40:29.367Z,102202.83
2018-06-25T15:42:57.637Z,102196.46
2018-06-25T15:45:25.941Z,102196.84
2018-06-25T15:47:54.275Z,102198.77
2018-06-25T15:50:22.588Z,102201.26
2018-06-25T15:52:50.881Z,102197.73
2018-06-25T15:55:19.189Z,102191.31
2018-06-25T15:57:47.494Z,102185.08
2018-06-25T16:00:15.809Z,102187.05
2018-06-25T16:02:45.113Z,102188.90
2018-06-25T16:05:13.473Z,102181.83
2018-06-25T16:07:42.380Z,102182.53
2018-06-25T16:10:10.885Z,102183.67
2018-06-25T16:12:39.185Z,102186.94
2018-06-25T16:15:07.517Z,102189.91
2018-06-25T16:17:35.809Z,102186.64
2018-06-25T16:20:04.234Z,102175.95
2018-06-25T16:22:32.539Z,102170.20
2018-06-25T16:25:00.809Z,102185.20
2018-06-25T16:27:29.121Z,102182.37
2018-06-25T16:29:57.438Z,102187.38
2018-06-25T16:32:25.913Z,102176.58
2018-06-25T16:34:54.175Z,102177.46
2018-06-25T16:37:22.521Z,102178.45
2018-06-25T16:39:50.846Z,102177.56
2018-06-25T16:42:19.120Z,102173.38
2018-06-25T16:44:47.405Z,102184.58
2018-06-25T16:47:15.762Z,102178.81
2018-06-25T16:49:44.104Z,102173.73
2018-06-25T16:52:12.446Z,102173.48
2018-06-25T16:54:40.778Z,102171.77
2018-06-25T16:57:09.159Z,102176.19
2018-06-25T16:59:37.462Z,102177.28
2018-06-25T17:02:05.773Z,102179.49
2018-06-25T17:04:34.085Z,102177.61
2018-06-25T17:07:02.495Z,102178.38
2018-06-25T17:09:30.804Z,102183.42
2018-06-25T17:11:59.088Z,102187.29
2018-06-25T17:14:27.393Z,102192.63
2018-06-25T17:16:55.869Z,102188.25
2018-06-25T17:19:24.177Z,102184.28
2018-06-25T17:21:52.441Z,102181.88
2018-06-25T17:24:20.769Z,102180.00
2018-06-25T17:26:49.037Z,102184.39
2018-06-25T17:29:17.354Z,102187.41
2018-06-25T17:31:45.653Z,102187.66
2018-06-25T17:34:13.905Z,102187.39
2018-06-25T17:36:42.185Z,102180.70
2018-06-25T17:39:10.470Z,102173.31
2018-06-25T17:41:38.753Z,102169.58
2018-06-25T17:44:07.010Z,102161.05
2018-06-25T17:46:35.308Z,102165.78
2018-06-25T17:49:03.609Z,102157.16
2018-06-25T17:51:31.946Z,102157.92
2018-06-25T17:54:00.221Z,102164.72
2018-06-25T17:56:28.531Z,102159.42
2018-06-25T17:58:56.863Z,102172.70
2018-06-25T18:01:25.173Z,102173.05
2018-06-25T18:03:53.444Z,102177.00
2018-06-25T18:06:21.786Z,102180.27
2018-06-25T18:08:50.057Z,102180.17
2018-06-25T18:11:18.364Z,102185.71
2018-06-25T18:13:46.625Z,102184.59
2018-06-25T18:16:14.929Z,102178.77
2018-06-25T18:18:43.197Z,102186.37
2018-06-25T18:21:11.473Z,102188.95
2018-06-25T18:23:39.807Z,102195.56
2018-06-25T18:26:08.081Z,102196.91
2018-06-25T18:28:36.389Z,102207.94
2018-06-25T18:31:04.667Z,102204.67
2018-06-25T18:33:32.984Z,102198.63
2018-06-25T18:36:01.250Z,102192.61
2018-06-25T18:38:29.702Z,102198.02
2018-06-25T18:40:58.365Z,102196.92
2018-06-25T18:43:26.665Z,102200.84
2018-06-25T18:45:54.980Z,102198.22
2018-06-25T18:48:23.427Z,102207.80
2018-06-25T18:50:51.736Z,102208.80
2018-06-25T18:53:20.024Z,102197.95
2018-06-25T18:55:48.537Z,102206.83
2018-06-25T18:58:16.858Z,102207.13
2018-06-25T19:00:45.301Z,102213.28
2018-06-25T19:03:13.640Z,102204.37
2018-06-25T19:05:41.943Z,102209.69
2018-06-25T19:08:10.185Z,102207.50
2018-06-25T19:10:38.473Z,102220.22
2018-06-25T19:13:06.816Z,102212.47
2018-06-25T19:15:35.245Z,102215.48
2018-06-25T19:18:03.746Z,102218.71
2018-06-25T19:20:32.041Z,102221.91
2018-06-25T19:23:00.306Z,102218.62
2018-06-25T19:25:28.613Z,102228.36
2018-06-25T19:27:57.057Z,102231.22
2018-06-25T19:30:25.397Z,102238.25
2018-06-25T19:32:53.671Z,102237.05
2018-06-25T19:35:21.949Z,102248.20
2018-06-25T19:37:50.220Z,102248.28
2018-06-25T19:40:18.574Z,102247.02
2018-06-25T19:42:47.126Z,102251.94
2018-06-25T19:45:15.441Z,102251.34
2018-06-25T19:47:43.701Z,102249.32
2018-06-25T19:50:12.013Z,102258.22
2018-06-25T19:52:40.284Z,102257.25
2018-06-25T19:55:08.574Z,102256.81
2018-06-25T19:57:36.829Z,102262.20
2018-06-25T20:00:05.292Z,102262.94
2018-06-25T20:02:33.607Z,102259.23
2018-06-25T20:05:01.910Z,102261.84
2018-06-25T20:07:30.196Z,102267.25
2018-06-25T20:09:58.483Z,102270.86
2018-06-25T20:12:26.847Z,102265.23
2018-06-25T20:14:55.070Z,102268.00
2018-06-25T20:17:23.408Z,102271.09
2018-06-25T20:19:51.735Z,102266.20
2018-06-25T20:22:20.020Z,102266.94
2018-06-25T20:24:48.289Z,102262.84
2018-06-25T20:27:16.572Z,102266.20
2018-06-25T20:29:44.830Z,102266.52
2018-06-25T20:32:13.133Z,102267.25
2018-06-25T20:34:41.443Z,102269.18
2018-06-25T20:37:09.741Z,102274.34
2018-06-25T20:39:37.997Z,102268.80
2018-06-25T20:42:06.341Z,102270.73
2018-06-25T20:44:34.629Z,102274.81
2018-06-25T20:47:03.119Z,102278.17
2018-06-25T20:49:31.231Z,102284.06
2018-06-25T20:51:59.529Z,102279.62
2018-06-25T20:54:27.788Z,102275.08
2018-06-25T20:56:56.270Z,102274.73
2018-06-25T20:59:24.467Z,102284.20
2018-06-25T21:01:53.046Z,102284.55
2018-06-25T21:04:21.388Z,102295.00
2018-06-25T21:06:49.713Z,102299.69
2018-06-25T21:09:18.082Z,102290.69
2018-06-25T21:11:46.359Z,102294.66
2018-06-25T21:14:14.646Z,102295.48
2018-06-25T21:16:42.988Z,102291.89
2018-06-25T21:19:11.229Z,102290.92
2018-06-25T21:21:39.657Z,102291.77
2018-06-25T21:24:07.953Z,102292.25
2018-06-25T21:26:36.661Z,102292.39
2018-06-25T21:29:05.460Z,102293.83
2018-06-25T21:31:33.716Z,102292.12
2018-06-25T21:34:02.010Z,102287.45
2018-06-25T21:36:30.336Z,102293.95
2018-06-25T21:38:58.647Z,102301.00
2018-06-25T21:41:26.905Z,102302.82
2018-06-25T21:43:55.181Z,102307.27
2018-06-25T21:46:23.437Z,102300.29
2018-06-25T21:48:51.722Z,102305.83
2018-06-25T21:51:20.117Z,102301.23
2018-06-25T21:53:48.406Z,102308.44
2018-06-25T21:56:16.662Z,102319.02
2018-06-25T21:58:44.977Z,102312.47
2018-06-25T22:01:13.281Z,102317.89
2018-06-25T22:03:41.904Z,102325.91
2018-06-25T22:06:10.257Z,102322.09
2018-06-25T22:08:38.530Z,102323.50
2018-06-25T22:11:06.834Z,102329.74
2018-06-25T22:13:35.135Z,102332.38
2018-06-25T22:16:03.421Z,102328.40
2018-06-25T22:18:31.688Z,102333.59
2018-06-25T22:20:59.977Z,102334.97
2018-06-25T22:23:28.248Z,102328.64
2018-06-25T22:25:56.557Z,102329.86
2018-06-25T22:28:24.821Z,102322.23
2018-06-25T22:30:53.149Z,102323.42
2018-06-25T22:33:21.397Z,102329.55
2018-06-25T22:35:49.705Z,102321.42
2018-06-25T22:38:17.971Z,102325.34
2018-06-25T22:40:46.353Z,102319.38
2018-06-25T22:43:14.621Z,102318.28
2018-06-25T22:45:42.930Z,102311.55
2018-06-25T22:48:11.201Z,102317.57
2018-06-25T22:50:39.613Z,102315.75
2018-06-25T22:53:07.872Z,102318.55
2018-06-25T22:55:37.049Z,102324.47
2018-06-25T22:58:05.356Z,102330.05
2018-06-25T23:00:34.116Z,102322.69
2018-06-25T23:03:02.481Z,102326.37
2018-06-25T23:05:30.750Z,102329.57
2018-06-25T23:07:59.038Z,102326.04
2018-06-25T23:10:27.313Z,102324.22
2018-06-25T23:12:55.847Z,102314.31
2018-06-25T23:15:24.350Z,102323.42
2018-06-25T23:17:52.863Z,102319.36
2018-06-25T23:20:21.129Z,102320.07
2018-06-25T23:22:53.430Z,102324.97
2018-06-25T23:25:21.753Z,102323.58
2018-06-25T23:27:50.401Z,102328.34
2018-06-25T23:30:18.686Z,102335.01
2018-06-25T23:32:47.258Z,102330.45
2018-06-25T23:35:15.813Z,102335.99
2018-06-25T23:37:44.093Z,102337.41
2018-06-25T23:40:12.369Z,102343.70
2018-06-25T23:42:40.681Z,102334.47
2018-06-25T23:45:09.093Z,102328.95
2018-06-25T23:47:37.349Z,102341.73
2018-06-25T23:50:05.805Z,102338.89
2018-06-25T23:52:34.153Z,102340.80
2018-06-25T23:55:02.601Z,102340.81
2018-06-25T23:57:30.885Z,102337.70
2018-06-25T23:59:59.160Z,102335.69
